createdAt,value
2022-10-27T00:00:23.735Z,3.23
2022-10-27T00:02:51.614Z,3.13
2022-10-27T00:05:19.511Z,3.50
2022-10-27T00:07:49.193Z,3.63
2022-10-27T00:10:17.478Z,3.37
2022-10-27T00:12:45.987Z,3.57
2022-10-27T00:15:14.492Z,3.30
2022-10-27T00:17:42.528Z,3.37
2022-10-27T00:20:11.334Z,3.30
2022-10-27T00:22:39.183Z,3.70
2022-10-27T00:25:09.172Z,3.33
2022-10-27T00:27:37.009Z,3.80
2022-10-27T00:30:05.384Z,3.40
2022-10-27T00:32:33.232Z,3.50
2022-10-27T00:35:01.120Z,3.27
2022-10-27T00:37:29.448Z,3.63
2022-10-27T00:39:57.274Z,3.57
2022-10-27T00:42:26.460Z,3.30
2022-10-27T00:44:54.394Z,3.20
2022-10-27T00:47:25.113Z,3.30
2022-10-27T00:50:00.319Z,3.17
2022-10-27T00:52:32.576Z,3.20
2022-10-27T00:55:04.927Z,3.37
2022-10-27T00:57:35.675Z,3.00
2022-10-27T01:00:06.211Z,3.63
2022-10-27T01:02:36.015Z,3.40
2022-10-27T01:05:07.579Z,3.13
2022-10-27T01:07:36.695Z,3.30
2022-10-27T01:10:05.379Z,3.47
2022-10-27T01:12:34.992Z,3.63
2022-10-27T01:15:03.537Z,3.30
2022-10-27T01:17:42.642Z,3.13
2022-10-27T01:20:39.169Z,3.43
2022-10-27T01:23:11.951Z,3.40
2022-10-27T01:26:09.061Z,3.20
2022-10-27T01:29:02.464Z,3.13
2022-10-27T01:31:35.334Z,2.93
2022-10-27T01:34:10.569Z,3.47
2022-10-27T01:36:43.665Z,3.50
2022-10-27T01:39:17.643Z,3.47
2022-10-27T01:41:49.737Z,3.50
2022-10-27T01:44:23.277Z,3.57
2022-10-27T01:46:54.167Z,3.10
2022-10-27T01:49:22.057Z,3.07
2022-10-27T01:51:50.697Z,3.47
2022-10-27T01:54:21.536Z,3.80
2022-10-27T01:57:08.902Z,3.47
2022-10-27T01:59:55.912Z,3.27
2022-10-27T02:02:35.063Z,3.40
2022-10-27T02:05:08.037Z,3.43
2022-10-27T02:07:45.504Z,3.50
2022-10-27T02:10:19.123Z,3.30
2022-10-27T02:12:47.999Z,3.93
2022-10-27T02:15:24.968Z,3.53
2022-10-27T02:17:58.323Z,3.63
2022-10-27T02:20:30.456Z,3.47
2022-10-27T02:23:01.868Z,3.37
2022-10-27T02:25:35.266Z,3.97
2022-10-27T02:28:07.036Z,3.73
2022-10-27T02:30:36.093Z,3.20
2022-10-27T02:33:06.514Z,3.80
2022-10-27T02:35:34.854Z,3.47
2022-10-27T02:38:02.677Z,3.87
2022-10-27T02:40:30.612Z,3.40
2022-10-27T02:42:58.478Z,3.70
2022-10-27T02:45:26.289Z,3.33
2022-10-27T02:47:54.172Z,3.60
2022-10-27T02:50:23.448Z,3.60
2022-10-27T02:52:51.467Z,3.93
2022-10-27T02:55:19.519Z,3.70
2022-10-27T02:57:47.640Z,3.60
2022-10-27T03:00:17.031Z,3.47
2022-10-27T03:02:44.949Z,3.50
2022-10-27T03:05:12.794Z,3.60
2022-10-27T03:07:42.006Z,4.00
2022-10-27T03:10:10.530Z,4.10
2022-10-27T03:12:38.415Z,4.00
2022-10-27T03:15:07.316Z,3.67
2022-10-27T03:17:35.305Z,3.93
2022-10-27T03:20:03.112Z,3.90
2022-10-27T03:22:30.894Z,3.70
2022-10-27T03:25:00.149Z,3.90
2022-10-27T03:27:28.023Z,3.50
2022-10-27T03:29:55.856Z,3.57
2022-10-27T03:32:23.875Z,3.70
2022-10-27T03:34:51.787Z,3.77
2022-10-27T03:37:19.608Z,3.90
2022-10-27T03:39:47.420Z,3.70
2022-10-27T03:42:16.555Z,3.97
2022-10-27T03:44:44.399Z,3.97
2022-10-27T03:47:12.280Z,3.90
2022-10-27T03:49:40.174Z,3.40
2022-10-27T03:52:07.979Z,3.50
2022-10-27T03:54:35.853Z,3.87
2022-10-27T03:57:03.677Z,3.83
2022-10-27T03:59:32.862Z,3.70
2022-10-27T04:02:02.326Z,3.87
2022-10-27T04:04:32.761Z,4.17
2022-10-27T04:07:00.608Z,4.00
2022-10-27T04:09:28.624Z,4.10
2022-10-27T04:11:56.503Z,3.90
2022-10-27T04:14:24.408Z,4.00
2022-10-27T04:16:53.652Z,3.87
2022-10-27T04:19:21.703Z,3.63
2022-10-27T04:21:49.575Z,4.00
2022-10-27T04:24:17.395Z,4.00
2022-10-27T04:26:45.211Z,4.27
2022-10-27T04:29:13.061Z,4.00
2022-10-27T04:31:40.915Z,3.77
2022-10-27T04:34:10.115Z,3.83
2022-10-27T04:36:38.011Z,3.23
2022-10-27T04:39:05.918Z,4.13
2022-10-27T04:41:33.779Z,3.60
2022-10-27T04:44:01.664Z,4.20
2022-10-27T04:46:29.494Z,3.53
2022-10-27T04:48:57.436Z,3.50
2022-10-27T04:51:26.712Z,4.00
2022-10-27T04:53:54.503Z,3.20
2022-10-27T04:56:22.335Z,3.30
2022-10-27T04:58:50.171Z,3.63
2022-10-27T05:01:18.222Z,3.50
2022-10-27T05:03:48.300Z,3.83
2022-10-27T05:06:16.159Z,3.47
2022-10-27T05:08:45.996Z,4.40
2022-10-27T05:11:16.360Z,4.00
2022-10-27T05:13:44.693Z,3.43
2022-10-27T05:16:12.539Z,3.80
2022-10-27T05:18:40.418Z,3.30
2022-10-27T05:21:08.374Z,3.60
2022-10-27T05:23:36.279Z,3.90
2022-10-27T05:26:05.541Z,3.63
2022-10-27T05:28:33.393Z,3.90
2022-10-27T05:31:02.511Z,3.97
2022-10-27T05:33:30.409Z,3.83
2022-10-27T05:35:58.288Z,3.77
2022-10-27T05:38:26.137Z,3.83
2022-10-27T05:40:56.486Z,3.47
2022-10-27T05:43:26.193Z,3.83
2022-10-27T05:45:54.031Z,3.30
2022-10-27T05:48:21.832Z,3.67
2022-10-27T05:50:54.715Z,3.73
2022-10-27T05:53:22.742Z,3.17
2022-10-27T05:55:53.928Z,3.20
2022-10-27T05:58:22.367Z,3.30
2022-10-27T06:00:51.558Z,3.53
2022-10-27T06:03:21.863Z,3.00
2022-10-27T06:05:50.405Z,3.00
2022-10-27T06:08:18.919Z,3.47
2022-10-27T06:10:47.790Z,3.97
2022-10-27T06:13:15.971Z,3.00
2022-10-27T06:18:14.355Z,2.83
2022-10-27T06:20:43.048Z,3.63
2022-10-27T06:23:10.915Z,3.00
2022-10-27T06:25:38.776Z,3.17
2022-10-27T06:28:07.251Z,3.27
2022-10-27T06:30:35.167Z,2.90
2022-10-27T06:33:02.976Z,3.30
2022-10-27T06:35:32.187Z,3.03
2022-10-27T06:38:00.079Z,3.33
2022-10-27T06:40:27.943Z,3.10
2022-10-27T06:43:07.210Z,2.93
2022-10-27T06:45:43.776Z,2.80
2022-10-27T06:48:13.643Z,3.07
2022-10-27T06:50:47.297Z,2.90
2022-10-27T06:53:18.046Z,3.00
2022-10-27T06:55:45.941Z,3.57
2022-10-27T06:58:16.787Z,3.30
2022-10-27T07:03:34.409Z,3.70
2022-10-27T07:06:07.422Z,3.60
2022-10-27T07:08:35.448Z,4.27
2022-10-27T07:11:03.331Z,4.20
2022-10-27T07:13:31.167Z,4.10
2022-10-27T07:15:59.016Z,4.23
2022-10-27T07:18:38.655Z,4.47
2022-10-27T07:21:08.464Z,3.97
2022-10-27T07:23:36.413Z,4.20
2022-10-27T07:26:04.578Z,3.63
2022-10-27T07:28:32.469Z,3.87
2022-10-27T07:31:07.441Z,4.13
2022-10-27T07:33:36.076Z,3.77
2022-10-27T07:36:06.327Z,3.47
2022-10-27T07:41:29.795Z,3.67
2022-10-27T07:43:57.687Z,3.47
2022-10-27T07:46:27.304Z,3.77
2022-10-27T07:48:58.074Z,3.53
2022-10-27T07:51:29.064Z,3.90
2022-10-27T07:53:58.352Z,3.70
2022-10-27T07:56:33.311Z,4.20
2022-10-27T07:59:04.037Z,3.90
2022-10-27T08:01:32.283Z,3.63
2022-10-27T08:04:02.176Z,3.93
2022-10-27T08:06:30.396Z,4.07
2022-10-27T08:08:59.582Z,4.20
2022-10-27T08:11:38.424Z,3.90
2022-10-27T08:14:22.377Z,3.60
2022-10-27T08:16:50.459Z,3.73
2022-10-27T08:19:19.130Z,3.37
2022-10-27T08:21:48.121Z,3.10
2022-10-27T08:24:19.792Z,2.90
2022-10-27T08:29:26.314Z,2.70
2022-10-27T08:31:58.680Z,2.70
2022-10-27T08:35:46.343Z,3.00
2022-10-27T08:39:00.525Z,2.90
2022-10-27T08:41:40.981Z,2.77
2022-10-27T08:44:20.835Z,2.60
2022-10-27T08:46:51.793Z,2.57
2022-10-27T08:49:34.505Z,2.27
2022-10-27T08:52:37.327Z,2.90
2022-10-27T08:55:26.797Z,2.90
2022-10-27T08:59:06.008Z,2.80
2022-10-27T09:02:23.123Z,2.93
2022-10-27T09:05:22.350Z,2.73
2022-10-27T09:08:07.275Z,3.10
2022-10-27T09:14:50.913Z,2.53
2022-10-27T09:20:21.590Z,2.27
2022-10-27T09:22:51.363Z,2.00
2022-10-27T09:25:23.616Z,2.33
2022-10-27T09:27:55.986Z,2.20
2022-10-27T09:30:47.074Z,2.23
2022-10-27T09:33:45.818Z,2.20
2022-10-27T09:36:26.291Z,2.00
2022-10-27T09:38:55.917Z,1.73
2022-10-27T09:41:32.699Z,1.93
2022-10-27T09:44:00.765Z,2.03
2022-10-27T09:46:39.322Z,2.00
2022-10-27T09:49:10.891Z,2.50
2022-10-27T09:51:44.541Z,1.87
2022-10-27T09:54:31.481Z,2.20
2022-10-27T09:57:16.087Z,1.80
2022-10-27T09:59:46.493Z,2.00
2022-10-27T10:02:28.309Z,1.90
2022-10-27T10:05:15.707Z,2.00
2022-10-27T10:07:46.962Z,1.90
2022-10-27T10:10:25.624Z,2.00
2022-10-27T10:13:14.083Z,1.70
2022-10-27T10:15:44.138Z,2.10
2022-10-27T10:18:25.845Z,1.80
2022-10-27T10:21:00.271Z,1.70
2022-10-27T10:23:30.313Z,1.87
2022-10-27T10:26:00.580Z,2.00
2022-10-27T10:28:45.822Z,1.70
2022-10-27T10:31:17.368Z,1.93
2022-10-27T10:33:47.907Z,1.67
2022-10-27T10:36:30.818Z,1.80
2022-10-27T10:39:00.150Z,1.77
2022-10-27T10:41:31.515Z,1.73
2022-10-27T10:44:12.350Z,1.87
2022-10-27T10:46:44.876Z,1.63
2022-10-27T10:49:22.012Z,1.80
2022-10-27T10:51:55.536Z,1.80
2022-10-27T10:54:32.532Z,1.90
2022-10-27T10:59:36.827Z,1.83
2022-10-27T11:02:17.698Z,1.90
2022-10-27T11:04:49.459Z,1.70
2022-10-27T11:07:23.851Z,1.53
2022-10-27T11:09:59.184Z,1.70
2022-10-27T11:12:32.806Z,1.70
2022-10-27T11:15:06.795Z,1.67
2022-10-27T11:17:40.042Z,1.60
2022-10-27T11:20:14.750Z,1.90
2022-10-27T11:25:27.942Z,1.63
2022-10-27T11:28:04.745Z,1.90
2022-10-27T11:30:36.201Z,1.40
2022-10-27T11:33:15.470Z,1.53
2022-10-27T11:35:52.409Z,1.47
2022-10-27T11:38:32.299Z,1.43
2022-10-27T11:41:32.016Z,1.17
2022-10-27T11:44:10.024Z,1.53
2022-10-27T11:46:44.317Z,1.43
2022-10-27T11:49:25.089Z,1.83
2022-10-27T11:52:07.875Z,1.27
2022-10-27T11:54:39.348Z,1.43
2022-10-27T11:57:42.315Z,1.70
2022-10-27T12:00:21.057Z,1.50
2022-10-27T12:03:15.718Z,1.63
2022-10-27T12:06:01.585Z,2.00
2022-10-27T12:08:58.300Z,1.37
2022-10-27T12:11:42.790Z,1.67
2022-10-27T12:14:19.464Z,1.37
2022-10-27T12:17:38.012Z,1.80
2022-10-27T12:20:17.188Z,1.20
2022-10-27T12:22:54.439Z,1.40
2022-10-27T12:25:31.827Z,1.40
2022-10-27T12:28:06.250Z,1.50
2022-10-27T12:30:34.117Z,2.53
2022-10-27T12:33:09.149Z,1.60
2022-10-27T12:36:06.014Z,1.37
2022-10-27T12:38:41.890Z,1.53
2022-10-27T12:41:17.420Z,1.80
2022-10-27T12:43:58.406Z,1.60
2022-10-27T12:46:43.055Z,1.30
2022-10-27T12:49:20.966Z,1.50
2022-10-27T12:51:55.900Z,1.77
2022-10-27T12:54:47.949Z,1.90
2022-10-27T12:57:30.782Z,1.47
2022-10-27T13:00:06.685Z,1.60
2022-10-27T13:02:42.688Z,1.43
2022-10-27T13:05:51.592Z,1.43
2022-10-27T13:09:08.951Z,1.73
2022-10-27T13:12:12.905Z,1.53
2022-10-27T13:15:27.431Z,1.67
2022-10-27T13:18:07.641Z,1.40
2022-10-27T13:21:09.699Z,1.50
2022-10-27T13:23:56.008Z,1.70
2022-10-27T13:26:29.873Z,1.50
2022-10-27T13:29:01.608Z,1.80
2022-10-27T13:31:30.821Z,2.03
2022-10-27T13:34:20.713Z,1.80
2022-10-27T13:36:58.473Z,1.73
2022-10-27T13:39:49.407Z,2.20
2022-10-27T13:42:18.838Z,2.13
2022-10-27T13:44:48.706Z,2.77
2022-10-27T13:47:19.899Z,1.63
2022-10-27T13:50:07.870Z,2.00
2022-10-27T13:52:37.036Z,2.13
2022-10-27T13:55:33.979Z,2.00
2022-10-27T13:58:24.294Z,1.70
2022-10-27T14:01:18.998Z,2.00
2022-10-27T14:07:29.080Z,1.70
2022-10-27T14:09:56.981Z,1.80
2022-10-27T14:12:32.607Z,1.50
2022-10-27T14:15:07.774Z,2.03
2022-10-27T14:17:39.778Z,1.83
2022-10-27T14:20:20.677Z,1.73
2022-10-27T14:22:52.867Z,2.00
2022-10-27T14:25:28.348Z,1.70
2022-10-27T14:28:14.722Z,1.70
2022-10-27T14:30:50.686Z,1.70
2022-10-27T14:33:27.219Z,1.63
2022-10-27T14:38:52.009Z,1.90
2022-10-27T14:41:24.547Z,1.63
2022-10-27T14:43:57.382Z,1.90
2022-10-27T14:46:30.606Z,1.80
2022-10-27T14:49:11.153Z,2.13
2022-10-27T14:51:43.802Z,1.93
2022-10-27T14:54:18.645Z,2.00
2022-10-27T14:56:50.262Z,1.73
2022-10-27T14:59:25.018Z,1.87
2022-10-27T15:01:57.094Z,2.00
2022-10-27T15:04:27.997Z,1.80
2022-10-27T15:07:02.447Z,2.00
2022-10-27T15:09:33.412Z,2.17
2022-10-27T15:12:04.852Z,2.70
2022-10-27T15:14:34.680Z,2.10
2022-10-27T15:17:02.809Z,1.70
2022-10-27T15:19:30.873Z,2.10
2022-10-27T15:22:01.306Z,2.17
2022-10-27T15:24:29.363Z,1.90
2022-10-27T15:26:57.838Z,1.80
2022-10-27T15:29:25.774Z,2.23
2022-10-27T15:31:59.239Z,1.90
2022-10-27T15:34:36.087Z,2.20
2022-10-27T15:37:30.618Z,1.97
2022-10-27T15:40:19.341Z,2.33
2022-10-27T15:42:48.204Z,2.30
2022-10-27T15:45:41.497Z,1.83
2022-10-27T15:48:32.929Z,1.83
2022-10-27T15:51:03.146Z,2.17
2022-10-27T15:53:37.272Z,2.10
2022-10-27T15:56:07.236Z,1.93
2022-10-27T15:58:37.339Z,2.00
2022-10-27T16:01:10.972Z,1.73
2022-10-27T16:03:42.779Z,1.97
2022-10-27T16:06:21.453Z,1.97
2022-10-27T16:08:51.670Z,1.90
2022-10-27T16:11:21.461Z,2.00
2022-10-27T16:13:52.031Z,1.97
2022-10-27T16:16:20.284Z,2.27
2022-10-27T16:18:48.334Z,1.90
2022-10-27T16:21:25.952Z,2.30
2022-10-27T16:23:57.074Z,2.13
2022-10-27T16:26:27.830Z,1.93
2022-10-27T16:29:01.057Z,2.10
2022-10-27T16:31:30.488Z,2.40
2022-10-27T16:33:58.771Z,2.50
2022-10-27T16:36:26.606Z,2.47
2022-10-27T16:38:55.735Z,1.90
2022-10-27T16:41:27.845Z,2.40
2022-10-27T16:43:55.990Z,2.50
2022-10-27T16:46:24.399Z,2.50
2022-10-27T16:48:52.230Z,2.20
2022-10-27T16:51:20.439Z,2.40
2022-10-27T16:53:49.564Z,2.83
2022-10-27T16:56:18.842Z,2.17
2022-10-27T16:58:46.635Z,2.23
2022-10-27T17:01:16.380Z,2.07
2022-10-27T17:03:44.669Z,2.30
2022-10-27T17:06:13.437Z,2.33
2022-10-27T17:08:41.916Z,2.70
2022-10-27T17:11:10.973Z,2.43
2022-10-27T17:13:40.509Z,2.30
2022-10-27T17:16:10.561Z,2.30
2022-10-27T17:18:38.836Z,2.40
2022-10-27T17:21:07.823Z,2.50
2022-10-27T17:23:35.787Z,2.53
2022-10-27T17:26:05.112Z,2.50
2022-10-27T17:28:33.393Z,2.27
2022-10-27T17:31:08.310Z,2.60
2022-10-27T17:33:37.140Z,2.60
2022-10-27T17:36:06.909Z,2.97
2022-10-27T17:38:34.954Z,2.60
2022-10-27T17:41:04.456Z,2.90
2022-10-27T17:43:36.135Z,3.00
2022-10-27T17:46:08.820Z,2.97
2022-10-27T17:48:37.945Z,2.53
2022-10-27T17:51:07.373Z,3.27
2022-10-27T17:53:35.763Z,3.10
2022-10-27T17:56:06.134Z,2.57
2022-10-27T17:58:36.287Z,2.60
2022-10-27T18:01:14.930Z,3.10
2022-10-27T18:03:50.517Z,2.90
2022-10-27T18:06:25.899Z,3.00
2022-10-27T18:08:56.291Z,3.07
2022-10-27T18:11:37.113Z,3.20
2022-10-27T18:14:08.041Z,3.03
2022-10-27T18:16:40.797Z,2.77
2022-10-27T18:19:10.288Z,2.67
2022-10-27T18:21:39.987Z,2.67
2022-10-27T18:24:14.241Z,3.20
2022-10-27T18:26:54.477Z,2.77
2022-10-27T18:29:25.580Z,3.10
2022-10-27T18:31:55.982Z,3.50
2022-10-27T18:34:33.876Z,3.17
2022-10-27T18:37:04.821Z,3.50
2022-10-27T18:39:33.076Z,3.27
2022-10-27T18:42:00.904Z,3.27
2022-10-27T18:44:31.627Z,3.43
2022-10-27T18:47:45.466Z,3.47
2022-10-27T18:50:15.206Z,3.10
2022-10-27T18:52:43.008Z,3.57
2022-10-27T18:55:11.259Z,3.50
2022-10-27T18:57:57.299Z,3.47
2022-10-27T19:00:39.063Z,3.27
2022-10-27T19:06:32.053Z,3.37
2022-10-27T19:11:37.703Z,4.33
2022-10-27T19:14:23.074Z,3.07
2022-10-27T19:16:54.835Z,3.60
2022-10-27T19:19:26.615Z,3.73
2022-10-27T19:21:55.228Z,4.07
2022-10-27T19:24:23.430Z,3.00
2022-10-27T19:26:52.900Z,2.97
2022-10-27T19:29:20.826Z,3.30
2022-10-27T19:31:48.673Z,3.50
2022-10-27T19:34:16.550Z,3.90
2022-10-27T19:36:44.588Z,3.83
2022-10-27T19:39:13.151Z,3.57
2022-10-27T19:41:41.183Z,3.67
2022-10-27T19:44:11.920Z,3.50
2022-10-27T19:46:40.147Z,3.90
2022-10-27T19:49:13.635Z,3.70
2022-10-27T19:51:42.081Z,3.60
2022-10-27T19:54:15.442Z,4.00
2022-10-27T19:56:47.351Z,3.97
2022-10-27T19:59:17.126Z,4.17
2022-10-27T20:01:48.738Z,3.87
2022-10-27T20:04:19.429Z,4.07
2022-10-27T20:06:47.354Z,3.83
2022-10-27T20:09:15.578Z,3.83
2022-10-27T20:11:44.559Z,3.97
2022-10-27T20:14:12.649Z,4.20
2022-10-27T20:16:43.706Z,4.27
2022-10-27T20:19:14.124Z,3.90
2022-10-27T20:21:42.384Z,4.37
2022-10-27T20:24:11.793Z,4.43
2022-10-27T20:26:40.628Z,4.13
2022-10-27T20:29:08.749Z,3.90
2022-10-27T20:31:37.123Z,4.27
2022-10-27T20:34:10.171Z,3.87
2022-10-27T20:36:39.322Z,3.73
2022-10-27T20:39:08.986Z,3.90
2022-10-27T20:41:37.009Z,4.00
2022-10-27T20:44:05.219Z,4.50
2022-10-27T20:46:34.497Z,4.43
2022-10-27T20:49:02.746Z,4.57
2022-10-27T20:51:33.283Z,4.10
2022-10-27T20:54:03.936Z,3.87
2022-10-27T20:56:34.577Z,3.77
2022-10-27T20:59:03.311Z,4.43
2022-10-27T21:01:32.859Z,3.90
2022-10-27T21:04:02.713Z,3.67
2022-10-27T21:06:43.255Z,4.20
2022-10-27T21:09:12.949Z,4.10
2022-10-27T21:11:44.035Z,3.97
2022-10-27T21:14:13.638Z,3.90
2022-10-27T21:16:51.324Z,4.10
2022-10-27T21:19:19.711Z,4.20
2022-10-27T21:21:57.170Z,4.33
2022-10-27T21:24:25.986Z,4.30
2022-10-27T21:26:53.841Z,4.23
2022-10-27T21:29:21.893Z,4.13
2022-10-27T21:31:55.250Z,3.73
2022-10-27T21:34:26.442Z,4.70
2022-10-27T21:37:21.105Z,4.63
2022-10-27T21:40:04.506Z,4.40
2022-10-27T21:42:47.038Z,4.03
2022-10-27T21:45:15.377Z,4.33
2022-10-27T21:47:43.643Z,4.43
2022-10-27T21:50:11.850Z,3.93
2022-10-27T21:52:41.208Z,4.30
2022-10-27T21:55:09.676Z,4.27
2022-10-27T21:57:43.076Z,3.90
2022-10-27T22:00:13.395Z,4.70
2022-10-27T22:02:41.471Z,4.33
2022-10-27T22:05:10.427Z,4.93
2022-10-27T22:07:38.322Z,4.87
2022-10-27T22:10:09.289Z,4.70
2022-10-27T22:12:37.139Z,4.70
2022-10-27T22:15:06.051Z,4.80
2022-10-27T22:17:36.047Z,4.57
2022-10-27T22:20:07.813Z,4.70
2022-10-27T22:22:46.849Z,4.97
2022-10-27T22:25:16.345Z,4.70
2022-10-27T22:28:04.983Z,5.17
2022-10-27T22:30:32.866Z,5.27
2022-10-27T22:33:02.629Z,4.00
2022-10-27T22:35:30.774Z,4.33
2022-10-27T22:37:58.947Z,4.43
2022-10-27T22:40:36.460Z,4.00
2022-10-27T22:43:04.337Z,5.70
2022-10-27T22:45:32.211Z,4.93
2022-10-27T22:48:00.040Z,5.83
2022-10-27T22:50:27.863Z,4.27
2022-10-27T22:52:55.717Z,4.57
2022-10-27T22:55:23.566Z,4.67
2022-10-27T22:57:53.013Z,4.87
2022-10-27T23:00:22.469Z,4.73
2022-10-27T23:02:52.288Z,4.47
2022-10-27T23:05:20.436Z,5.13
2022-10-27T23:07:48.306Z,4.50
2022-10-27T23:10:16.326Z,5.23
2022-10-27T23:12:44.196Z,4.40
2022-10-27T23:15:13.609Z,4.60
2022-10-27T23:17:41.443Z,4.87
2022-10-27T23:20:10.751Z,5.20
2022-10-27T23:22:38.600Z,5.13
2022-10-27T23:25:07.224Z,5.30
2022-10-27T23:27:35.326Z,5.67
2022-10-27T23:30:03.183Z,5.73
2022-10-27T23:32:39.990Z,5.73
2022-10-27T23:35:09.265Z,5.50
2022-10-27T23:37:41.301Z,5.33
2022-10-27T23:40:10.171Z,6.17
2022-10-27T23:42:38.035Z,5.67
2022-10-27T23:45:06.685Z,6.33
2022-10-27T23:47:36.054Z,5.70
2022-10-27T23:50:03.980Z,6.03
2022-10-27T23:52:31.917Z,6.00
2022-10-27T23:55:15.301Z,6.27
2022-10-27T23:57:43.144Z,6.00
